Wednesday, January 17, 2018, 8:16 AM EST
Back to Local

KRDG, Reading Regional Airport

Location: Reading, PA, United States Lat: 40.367
Local Time: 8:16 AM EST (13:16 GMT) Lon: -75.967
Time Zone: US/Eastern Elev: 344 ft

Show me the last for .
Show Decoded

2018-01-17 07:54 METAR KRDG 171254Z 30009KT 3/4SM R36/P6000FT -SN OVC021 A3034 RMK AO2 SFC VIS 1
                 3/4 SLPNO P0000 $ =
2018-01-17 07:13 METAR KRDG 171213Z 30012KT 3/4SM R36/P6000FT -SN OVC016 A3033 RMK AO2 SFC VIS 2
                 1/2 P0000 $ =
2018-01-17 07:06 METAR KRDG 171206Z 30011KT 4SM -SN OVC015 A3033 RMK AO2 P0000 $ =
2018-01-17 06:54 METAR KRDG 171154Z 31010KT 2SM -SN OVC015 A3033 RMK AO2 SLPNO P0001 60003 70010
                 53010 $ =
2018-01-17 06:45 METAR KRDG 171145Z 31010KT 1 1/2SM -SN SCT012 OVC017 A3033 RMK AO2 P0000 $ =
2018-01-17 06:28 METAR KRDG 171128Z 31010KT 2 1/2SM -SN SCT016 OVC028 A3033 RMK AO2 P0000 $ =
2018-01-17 06:20 METAR KRDG 171120Z 31011KT 4SM -SN SCT016 OVC035 A3032 RMK AO2 P0000 $ =
2018-01-17 05:54 METAR KRDG 171054Z 30006KT 4SM -SN FEW006 BKN029 OVC060 A3031 RMK AO2 SLPNO
                 P0000 $ =
2018-01-17 05:40 METAR KRDG 171040Z 31007KT 4SM -SN FEW007 BKN022 OVC065 A3030 RMK AO2 P0000 $ =
2018-01-17 05:28 METAR KRDG 171028Z 31005KT 2 1/2SM -SN FEW009 OVC020 A3029 RMK AO2 P0000 $ =
2018-01-17 05:18 METAR KRDG 171018Z 32008KT 2 1/2SM -SN BKN024 OVC038 A3031 RMK AO2 P0000 $ =
2018-01-17 04:54 METAR KRDG 170954Z 33009KT 3SM -SN BKN019 OVC037 A3030 RMK AO2 SLPNO P0001 $ =
2018-01-17 04:12 METAR KRDG 170912Z 33009KT 2SM -SN FEW007 OVC015 A3030 RMK AO2 P0001 $ =
2018-01-17 04:09 METAR KRDG 170909Z 33006KT 1 3/4SM -SN OVC013 A3030 RMK AO2 P0001 $ =
2018-01-17 03:54 METAR KRDG 170854Z 30006KT 1 3/4SM -SN BKN017 OVC036 A3030 RMK AO2 SLPNO P0000
                 60001 52003 $ =
2018-01-17 03:49 METAR KRDG 170849Z 29006KT 2SM -SN BKN019 OVC036 A3029 RMK AO2 P0000 $ =
2018-01-17 03:24 METAR KRDG 170824Z 30005KT 3SM -SN FEW027 BKN034 OVC049 A3029 RMK AO2 P0000 $ =
2018-01-17 03:05 METAR KRDG 170805Z 00000KT 2 1/2SM -SN SCT010 OVC032 A3028 RMK AO2 P0000 $ =
2018-01-17 02:54 METAR KRDG 170754Z 30004KT 3SM -SN BKN010 BKN022 OVC032 A3029 RMK AO2 SNE13B22
                 SLPNO P0000 $ =
2018-01-17 02:44 METAR KRDG 170744Z 30004KT 3SM -SN BKN010 OVC020 A3030 RMK AO2 SNE13B22 P0000 $
                 =
2018-01-17 02:37 METAR KRDG 170737Z 30004KT 2 1/2SM -SN SCT011 OVC020 A3030 RMK AO2 SNE13B22
                 P0000 $ =
2018-01-17 02:13 METAR KRDG 170713Z 00000KT 3SM BR BKN017 OVC026 A3030 RMK AO2 SNE13 P0000 $ =
2018-01-17 02:04 METAR KRDG 170704Z 30003KT 2 1/2SM -SN BKN018 OVC026 A3030 RMK AO2 P0000 $ =
2018-01-17 01:54 METAR KRDG 170654Z 00000KT 1 3/4SM -SN BKN018 OVC026 A3030 RMK AO2 SLPNO P0001 $
                 =
2018-01-17 01:38 METAR KRDG 170638Z 28003KT 2 1/2SM -SN BKN029 OVC034 A3030 RMK AO2 P0000 $ =
2018-01-17 01:14 METAR KRDG 170614Z 00000KT 2SM -SN OVC032 A3030 RMK AO2 P0000 $ =
2018-01-17 00:54 METAR KRDG 170554Z 00000KT 2 1/2SM -SN SCT009 SCT013 OVC026 A3029 RMK AO2
                 RAE01SNB01 PRESFR SLPNO P0001 60004 58017 $ =
2018-01-17 00:50 METAR KRDG 170550Z 31003KT 2 1/2SM -SN SCT009 BKN013 OVC026 A3030 RMK AO2
                 RAE01SNB01 P0001 $ =
2018-01-17 00:28 METAR KRDG 170528Z 00000KT 3SM -SN OVC009 A3032 RMK AO2 RAE01SNB01 CIG 004V011
                 P0001 $ =
2018-01-17 00:18 METAR KRDG 170518Z 29003KT 2 1/2SM -SN BKN006 OVC011 A3032 RMK AO2 RAE01SNB01
                 P0001 $ =
2018-01-17 00:11 METAR KRDG 170511Z 29004KT 2 1/2SM -SN SCT006 OVC011 A3033 RMK AO2 RAE01SNB01
                 P0001 $ =
2018-01-17 00:02 METAR KRDG 170502Z 33005KT 3SM -SN FEW006 BKN010 OVC020 A3033 RMK AO2 RAE01SNB01
                 P0000 $ =
2018-01-16 23:54 METAR KRDG 170454Z 33006KT 2 1/2SM -RA BKN010 OVC020 A3032 RMK AO2 SLPNO P0002
                 400561028 $ =
2018-01-16 23:25 METAR KRDG 170425Z AUTO 33003KT 2SM -RA FEW014 OVC020 A3032 RMK AO2 P0002 $ =
2018-01-16 23:03 METAR KRDG 170403Z AUTO 36003KT 1 3/4SM -RA BKN015 OVC019 A3033 RMK AO2 P0001 $
                 =
2018-01-16 22:54 METAR KRDG 170354Z AUTO 35004KT 2SM -RA OVC016 A3033 RMK AO2 RAB31 SLPNO P0001 $
                 =
2018-01-16 22:20 METAR KRDG 170320Z AUTO 01003KT 3SM BR OVC017 A3035 RMK AO2 $ =
2018-01-16 21:54 METAR KRDG 170254Z AUTO 01004KT 2 1/2SM HZ OVC018 05/M01 A3035 RMK AO2 SLP285
                 T00501006 57004 =
2018-01-16 21:45 METAR KRDG 170245Z AUTO 01005KT 3SM HZ OVC018 04/M01 A3035 RMK AO2 T00441006 =
2018-01-16 21:34 METAR KRDG 170234Z AUTO 35004KT 2 1/2SM HZ OVC019 04/M01 A3035 RMK AO2 T00391006
                 =
2018-01-16 20:54 METAR KRDG 170154Z AUTO 36005KT 7SM BKN022 BKN029 OVC055 04/M01 A3035 RMK AO2
                 SLP286 T00391006 =
2018-01-16 19:54 METAR KRDG 170054Z AUTO 36004KT 6SM HZ OVC060 03/M01 A3036 RMK AO2 SLP287
                 T00331006 =
2018-01-16 18:54 METAR KRDG 162354Z AUTO 02003KT 7SM OVC060 04/M01 A3036 RMK AO2 SLP289 T00441006
                 10044 20000 56004 =
2018-01-16 17:54 METAR KRDG 162254Z AUTO 00000KT 8SM OVC050 00/M01 A3036 RMK AO2 SLP291 T00001006
                 =
2018-01-16 16:54 METAR KRDG 162154Z 36003KT 7SM OVC050 00/M01 A3036 RMK AO2 SLP291 T00001006 =
2018-01-16 16:01 METAR KRDG 162101Z 00000KT 6SM BR SCT012 SCT027 BKN065 00/M01 A3037 RMK AO2
                 T00001006 =
2018-01-16 15:54 METAR KRDG 162054Z 03004KT 6SM BR BKN012 BKN025 00/M01 A3037 RMK AO2 SLP294
                 T00001011 56002 =
2018-01-16 15:04 METAR KRDG 162004Z 01003KT 6SM BR BKN012 OVC060 00/M01 A3037 RMK AO2 T00001006 =
2018-01-16 14:54 METAR KRDG 161954Z 01003KT 7SM FEW012 OVC060 00/M01 A3037 RMK AO2 SLP294
                 T00001006 =
2018-01-16 14:49 METAR KRDG 161949Z 01004KT 7SM SCT012 SCT050 OVC060 00/M01 A3037 RMK AO2 =
2018-01-16 13:54 METAR KRDG 161854Z 01003KT 6SM BR OVC013 00/M01 A3038 RMK AO2 SLP296 T00001011 =
2018-01-16 12:54 METAR KRDG 161754Z 00000KT 9SM OVC012 00/M02 A3041 RMK AO2 SLP305 60003
                 T00001017 10000 21022 58024 =
2018-01-16 11:54 METAR KRDG 161654Z 00000KT 5SM BR OVC013 00/M02 A3043 RMK AO2 SLP313 T00001017 =
2018-01-16 11:02 METAR KRDG 161602Z 17003KT 6SM BR BKN013 BKN018 OVC033 M01/M02 A3045 RMK AO2
                 T10061017 =
2018-01-16 10:54 METAR KRDG 161554Z 18003KT 6SM BR SCT013 BKN018 OVC070 M01/M02 A3046 RMK AO2
                 SNE1456 SLP324 P0000 T10061017 =
2018-01-16 09:54 METAR KRDG 161454Z 00000KT 3SM -SN BR BKN014 OVC026 M02/M02 A3048 RMK AO2 SFC
                 VIS 4 SLP329 P0000 60003 T10171022 51008 =
2018-01-16 09:49 METAR KRDG 161449Z 00000KT 3/4SM R36/P6000FT -SN BR BKN014 OVC024 M02/M02 A3047
                 RMK AO2 SFC VIS 3 P0000 =
2018-01-16 08:54 METAR KRDG 161354Z 18003KT 3/4SM R36/4500VP6000FT -SN BR OVC017 M02/M02 A3048
                 RMK AO2 SFC VIS 1 1/2 SLP329 P0002 T10171022 =

Support USWX by starting your Amazon purchase here.